DLH5AF EDDH-EDDF
Flight info
| Callsign | DLH5AF |
|---|---|
| Flight time | N/A |
| Altitude | 30000 |
| Route | AMLUH2G/33 AMLUH M852 DENIX DCT RIMET/N0445F310 T157 KOKEB T157 KERAX KERAX5D |
| Aircraft | A321/M-SDE3FGHIRWY/LB1 |
Departure
| Time | 2026-05-07 19:03 |
|---|---|
| Airport | Hamburg Helmut Schmidt Airport (EDDH) |
Arrival
| Time | N/A |
|---|---|
| Airport | Frankfurt Main Airport (EDDF) |
| Time | Latitude | Longitude | Altitude | Speed | Heading |
|---|---|---|---|---|---|
| 2026-05-07 18:33 | 53.63167 | 10.00352 | 49 ft | 0 kts | 86° |
| 2026-05-07 18:56 | 53.63166 | 10.00314 | 21 ft | 3 kts | 86° |
| 2026-05-07 18:57 | 53.63165 | 10.00278 | 48 ft | 4 kts | 104° |
| 2026-05-07 18:57 | 53.63177 | 10.00252 | 46 ft | 4 kts | 174° |
| 2026-05-07 18:57 | 53.63199 | 10.00249 | 48 ft | 1 kts | 176° |
| 2026-05-07 18:57 | 53.63200 | 10.00249 | 48 ft | 0 kts | 176° |
| 2026-05-07 19:00 | 53.63195 | 10.00249 | 48 ft | 4 kts | 176° |
| 2026-05-07 19:00 | 53.63134 | 10.00256 | 48 ft | 11 kts | 176° |
| 2026-05-07 19:00 | 53.63060 | 10.00260 | 48 ft | 9 kts | 198° |
| 2026-05-07 19:01 | 53.63004 | 10.00197 | 48 ft | 10 kts | 214° |
| 2026-05-07 19:01 | 53.62941 | 10.00126 | 48 ft | 12 kts | 212° |
| 2026-05-07 19:01 | 53.62868 | 10.00032 | 48 ft | 15 kts | 233° |
| 2026-05-07 19:01 | 53.62814 | 9.99849 | 45 ft | 20 kts | 256° |
| 2026-05-07 19:02 | 53.62849 | 9.99761 | 45 ft | 10 kts | 328° |
| 2026-05-07 19:02 | 53.63041 | 9.99598 | 46 ft | 64 kts | 333° |
| 2026-05-07 19:02 | 53.63644 | 9.99074 | 48 ft | 129 kts | 333° |
| 2026-05-07 19:02 | 53.64590 | 9.98252 | 173 ft | 166 kts | 334° |
| 2026-05-07 19:03 | 53.65586 | 9.97370 | 898 ft | 160 kts | 337° |
| 2026-05-07 19:03 | 53.66593 | 9.96499 | 1495 ft | 167 kts | 337° |
| 2026-05-07 19:03 | 53.67695 | 9.95566 | 1774 ft | 188 kts | 337° |
| 2026-05-07 19:03 | 53.68971 | 9.94723 | 1973 ft | 206 kts | 354° |
| 2026-05-07 19:04 | 53.70434 | 9.94681 | 2325 ft | 214 kts | 4° |
| 2026-05-07 19:04 | 53.71931 | 9.94833 | 2915 ft | 216 kts | 19° |
| 2026-05-07 19:04 | 53.73152 | 9.96181 | 3584 ft | 211 kts | 58° |
| 2026-05-07 19:04 | 53.73682 | 9.98466 | 4294 ft | 211 kts | 78° |
| 2026-05-07 19:05 | 53.74017 | 10.00899 | 5001 ft | 214 kts | 79° |
| 2026-05-07 19:05 | 53.74056 | 10.03401 | 5690 ft | 216 kts | 101° |
| 2026-05-07 19:05 | 53.73498 | 10.05870 | 6021 ft | 239 kts | 119° |
| 2026-05-07 19:05 | 53.72620 | 10.08439 | 6333 ft | 259 kts | 119° |
| 2026-05-07 19:06 | 53.71707 | 10.11123 | 6909 ft | 267 kts | 119° |
| 2026-05-07 19:06 | 53.69842 | 10.16661 | 8228 ft | 275 kts | 119° |
| 2026-05-07 19:06 | 53.68663 | 10.19214 | 8883 ft | 280 kts | 136° |
| 2026-05-07 19:07 | 53.67048 | 10.21062 | 9532 ft | 284 kts | 155° |
| 2026-05-07 19:07 | 53.65153 | 10.22086 | 10187 ft | 288 kts | 165° |
| 2026-05-07 19:07 | 53.63167 | 10.22977 | 10460 ft | 306 kts | 165° |
| 2026-05-07 19:07 | 53.61044 | 10.23944 | 10593 ft | 326 kts | 165° |
| 2026-05-07 19:08 | 53.58789 | 10.24977 | 10723 ft | 345 kts | 165° |
| 2026-05-07 19:08 | 53.56415 | 10.26065 | 10849 ft | 363 kts | 164° |
| 2026-05-07 19:08 | 53.53938 | 10.27200 | 11131 ft | 374 kts | 165° |
| 2026-05-07 19:08 | 53.51414 | 10.28358 | 11621 ft | 378 kts | 165° |
| 2026-05-07 19:09 | 53.48867 | 10.29526 | 12149 ft | 381 kts | 165° |
| 2026-05-07 19:09 | 53.46302 | 10.30696 | 12684 ft | 384 kts | 165° |
| 2026-05-07 19:09 | 53.43714 | 10.31874 | 13225 ft | 387 kts | 165° |
| 2026-05-07 19:09 | 53.41106 | 10.33058 | 13773 ft | 390 kts | 165° |
| 2026-05-07 19:10 | 53.38475 | 10.34245 | 14263 ft | 393 kts | 165° |
| 2026-05-07 19:10 | 53.35824 | 10.35441 | 14744 ft | 395 kts | 165° |
| 2026-05-07 19:10 | 53.33159 | 10.36640 | 15200 ft | 398 kts | 165° |
| 2026-05-07 19:10 | 53.30470 | 10.37842 | 15656 ft | 401 kts | 166° |
| 2026-05-07 19:11 | 53.27771 | 10.39053 | 16101 ft | 403 kts | 165° |
| 2026-05-07 19:11 | 53.25047 | 10.40275 | 16571 ft | 406 kts | 165° |
| 2026-05-07 19:11 | 53.22308 | 10.41500 | 17017 ft | 408 kts | 166° |
| 2026-05-07 19:11 | 53.19557 | 10.42727 | 17453 ft | 411 kts | 166° |
| 2026-05-07 19:12 | 53.16783 | 10.43964 | 17892 ft | 414 kts | 166° |
| 2026-05-07 19:12 | 53.13975 | 10.45045 | 18294 ft | 416 kts | 172° |
| 2026-05-07 19:12 | 53.11084 | 10.45390 | 18671 ft | 417 kts | 182° |
| 2026-05-07 19:12 | 53.08181 | 10.45062 | 19044 ft | 419 kts | 186° |
| 2026-05-07 19:13 | 53.05268 | 10.44653 | 19425 ft | 421 kts | 186° |
| 2026-05-07 19:13 | 53.02343 | 10.44247 | 19810 ft | 423 kts | 186° |
| 2026-05-07 19:13 | 52.99399 | 10.43842 | 20194 ft | 425 kts | 186° |
| 2026-05-07 19:13 | 52.96440 | 10.43434 | 20579 ft | 427 kts | 186° |
| 2026-05-07 19:14 | 52.93472 | 10.43022 | 20973 ft | 429 kts | 186° |
| 2026-05-07 19:14 | 52.90488 | 10.42614 | 21343 ft | 432 kts | 186° |
| 2026-05-07 19:14 | 52.87482 | 10.42209 | 21710 ft | 434 kts | 186° |
| 2026-05-07 19:14 | 52.84470 | 10.41807 | 22073 ft | 436 kts | 186° |
| 2026-05-07 19:15 | 52.81397 | 10.41393 | 22438 ft | 438 kts | 186° |
| 2026-05-07 19:15 | 52.78392 | 10.40984 | 22789 ft | 440 kts | 186° |
| 2026-05-07 19:15 | 52.75293 | 10.40563 | 23148 ft | 442 kts | 186° |
| 2026-05-07 19:15 | 52.72215 | 10.40143 | 23501 ft | 444 kts | 186° |
| 2026-05-07 19:16 | 52.69124 | 10.39724 | 23825 ft | 447 kts | 186° |
| 2026-05-07 19:16 | 52.66020 | 10.39309 | 24118 ft | 449 kts | 186° |
| 2026-05-07 19:16 | 52.62903 | 10.38893 | 24418 ft | 450 kts | 186° |
| 2026-05-07 19:16 | 52.59773 | 10.38473 | 24701 ft | 452 kts | 186° |
| 2026-05-07 19:17 | 52.56628 | 10.38049 | 24985 ft | 454 kts | 186° |
| 2026-05-07 19:17 | 52.53482 | 10.37625 | 25252 ft | 456 kts | 186° |
| 2026-05-07 19:17 | 52.50304 | 10.37198 | 25509 ft | 458 kts | 186° |
| 2026-05-07 19:17 | 52.48202 | 10.36915 | 25674 ft | 459 kts | 186° |
| 2026-05-07 19:18 | 52.45012 | 10.36486 | 25920 ft | 461 kts | 186° |
| 2026-05-07 19:18 | 52.41809 | 10.36058 | 26159 ft | 462 kts | 185° |
| 2026-05-07 19:18 | 52.38601 | 10.35637 | 26385 ft | 464 kts | 185° |
| 2026-05-07 19:18 | 52.35377 | 10.35213 | 26601 ft | 465 kts | 185° |
| 2026-05-07 19:19 | 52.32150 | 10.34787 | 26839 ft | 466 kts | 185° |
| 2026-05-07 19:19 | 52.28918 | 10.34359 | 27122 ft | 465 kts | 185° |
| 2026-05-07 19:19 | 52.25693 | 10.33930 | 27407 ft | 465 kts | 185° |
| 2026-05-07 19:19 | 52.22472 | 10.33502 | 27699 ft | 465 kts | 185° |
| 2026-05-07 19:20 | 52.19251 | 10.33073 | 27998 ft | 464 kts | 185° |
| 2026-05-07 19:20 | 52.16037 | 10.32647 | 28304 ft | 463 kts | 185° |
| 2026-05-07 19:20 | 52.12820 | 10.32222 | 28606 ft | 463 kts | 185° |
| 2026-05-07 19:20 | 52.09609 | 10.31799 | 28909 ft | 462 kts | 185° |
| 2026-05-07 19:21 | 52.06407 | 10.31379 | 29210 ft | 462 kts | 185° |
| 2026-05-07 19:21 | 52.03204 | 10.30957 | 29509 ft | 461 kts | 185° |
| 2026-05-07 19:21 | 52.00009 | 10.30539 | 29802 ft | 461 kts | 185° |
| 2026-05-07 19:21 | 51.96813 | 10.30122 | 29975 ft | 459 kts | 185° |
| 2026-05-07 19:22 | 51.93641 | 10.29711 | 29145 ft | 457 kts | 185° |
| 2026-05-07 19:22 | 51.90462 | 10.29297 | 28066 ft | 460 kts | 185° |
| 2026-05-07 19:22 | 51.87262 | 10.28879 | 26992 ft | 462 kts | 185° |
| 2026-05-07 19:22 | 51.84008 | 10.28454 | 26105 ft | 462 kts | 185° |
| 2026-05-07 19:23 | 51.80830 | 10.28040 | 25443 ft | 456 kts | 186° |
| 2026-05-07 19:23 | 51.77708 | 10.27637 | 25171 ft | 455 kts | 186° |
| 2026-05-07 19:23 | 51.74516 | 10.27229 | 25087 ft | 454 kts | 186° |
| 2026-05-07 19:23 | 51.71356 | 10.26822 | 25116 ft | 455 kts | 186° |
| 2026-05-07 19:24 | 51.68199 | 10.26413 | 25109 ft | 455 kts | 186° |
| 2026-05-07 19:24 | 51.65043 | 10.26002 | 25110 ft | 456 kts | 186° |
| 2026-05-07 19:24 | 51.61879 | 10.25590 | 25109 ft | 456 kts | 186° |
| 2026-05-07 19:24 | 51.58724 | 10.25181 | 25107 ft | 455 kts | 186° |
| 2026-05-07 19:25 | 51.55565 | 10.24775 | 25110 ft | 455 kts | 186° |
| 2026-05-07 19:25 | 51.52409 | 10.24372 | 25104 ft | 455 kts | 186° |
| 2026-05-07 19:25 | 51.49255 | 10.23968 | 25105 ft | 455 kts | 186° |
| 2026-05-07 19:25 | 51.46100 | 10.23564 | 25108 ft | 455 kts | 186° |
| 2026-05-07 19:26 | 51.42946 | 10.23158 | 25101 ft | 455 kts | 186° |
| 2026-05-07 19:26 | 51.39787 | 10.22753 | 25102 ft | 455 kts | 186° |
| 2026-05-07 19:26 | 51.36631 | 10.22352 | 25105 ft | 455 kts | 186° |
| 2026-05-07 19:26 | 51.33483 | 10.21958 | 25105 ft | 455 kts | 185° |
| 2026-05-07 19:27 | 51.30319 | 10.21685 | 25105 ft | 455 kts | 183° |
| 2026-05-07 19:27 | 51.27152 | 10.21570 | 25104 ft | 455 kts | 181° |
| 2026-05-07 19:27 | 51.23984 | 10.21557 | 25106 ft | 455 kts | 181° |
| 2026-05-07 19:27 | 51.20815 | 10.21581 | 25071 ft | 455 kts | 181° |
| 2026-05-07 19:28 | 51.17653 | 10.21600 | 24165 ft | 457 kts | 181° |
| 2026-05-07 19:28 | 51.14449 | 10.21589 | 23004 ft | 460 kts | 181° |
| 2026-05-07 19:28 | 51.11266 | 10.21546 | 22152 ft | 456 kts | 182° |
| 2026-05-07 19:28 | 51.08113 | 10.21484 | 21347 ft | 451 kts | 182° |
| 2026-05-07 19:29 | 51.04993 | 10.21413 | 20565 ft | 447 kts | 182° |
| 2026-05-07 19:29 | 51.01888 | 10.21340 | 20216 ft | 446 kts | 182° |
| 2026-05-07 19:29 | 50.98783 | 10.21271 | 20060 ft | 446 kts | 182° |
| 2026-05-07 19:29 | 50.95678 | 10.21208 | 20102 ft | 447 kts | 182° |
| 2026-05-07 19:30 | 50.92566 | 10.21149 | 20097 ft | 447 kts | 182° |
| 2026-05-07 19:30 | 50.89460 | 10.20905 | 20100 ft | 446 kts | 188° |
| 2026-05-07 19:30 | 50.86400 | 10.20118 | 20098 ft | 446 kts | 192° |
| 2026-05-07 19:30 | 50.83377 | 10.19005 | 20097 ft | 445 kts | 198° |
| 2026-05-07 19:31 | 50.80552 | 10.17071 | 20099 ft | 443 kts | 212° |
| 2026-05-07 19:31 | 50.78144 | 10.14118 | 19768 ft | 435 kts | 226° |
| 2026-05-07 19:31 | 50.76151 | 10.10567 | 18950 ft | 430 kts | 230° |
| 2026-05-07 19:31 | 50.74212 | 10.06999 | 18140 ft | 427 kts | 230° |
| 2026-05-07 19:32 | 50.72293 | 10.03455 | 17281 ft | 422 kts | 231° |
| 2026-05-07 19:32 | 50.70396 | 9.99948 | 16479 ft | 418 kts | 231° |
| 2026-05-07 19:32 | 50.68517 | 9.96481 | 15701 ft | 413 kts | 231° |
| 2026-05-07 19:32 | 50.66632 | 9.93012 | 14944 ft | 409 kts | 231° |
| 2026-05-07 19:33 | 50.64790 | 9.89633 | 14225 ft | 405 kts | 231° |
| 2026-05-07 19:33 | 50.62961 | 9.86287 | 13494 ft | 401 kts | 230° |
| 2026-05-07 19:33 | 50.61146 | 9.82976 | 13167 ft | 400 kts | 230° |
| 2026-05-07 19:33 | 50.59325 | 9.79664 | 13074 ft | 399 kts | 230° |
| 2026-05-07 19:34 | 50.57502 | 9.76350 | 13104 ft | 400 kts | 230° |
| 2026-05-07 19:34 | 50.55682 | 9.73043 | 13098 ft | 400 kts | 230° |
| 2026-05-07 19:34 | 50.53859 | 9.69732 | 13095 ft | 400 kts | 230° |
| 2026-05-07 19:34 | 50.52036 | 9.66429 | 13095 ft | 400 kts | 230° |
| 2026-05-07 19:35 | 50.50215 | 9.63122 | 13093 ft | 400 kts | 231° |
| 2026-05-07 19:35 | 50.48572 | 9.59592 | 13095 ft | 400 kts | 238° |
| 2026-05-07 19:35 | 50.47256 | 9.55766 | 13091 ft | 398 kts | 246° |
| 2026-05-07 19:35 | 50.46279 | 9.51708 | 13092 ft | 397 kts | 253° |
| 2026-05-07 19:36 | 50.45505 | 9.47551 | 13087 ft | 397 kts | 254° |
| 2026-05-07 19:36 | 50.44722 | 9.43392 | 13089 ft | 397 kts | 254° |
| 2026-05-07 19:36 | 50.43931 | 9.39236 | 13090 ft | 397 kts | 253° |
| 2026-05-07 19:36 | 50.43131 | 9.35092 | 13089 ft | 397 kts | 252° |
| 2026-05-07 19:37 | 50.42105 | 9.31095 | 12704 ft | 392 kts | 244° |
| 2026-05-07 19:37 | 50.40738 | 9.27423 | 11925 ft | 389 kts | 236° |
| 2026-05-07 19:37 | 50.39041 | 9.24127 | 11312 ft | 388 kts | 227° |
| 2026-05-07 19:37 | 50.37057 | 9.21238 | 11106 ft | 391 kts | 220° |
| 2026-05-07 19:38 | 50.34829 | 9.18790 | 11088 ft | 392 kts | 212° |
| 2026-05-07 19:38 | 50.32507 | 9.16545 | 11084 ft | 393 kts | 213° |
| 2026-05-07 19:38 | 50.30317 | 9.14002 | 11086 ft | 392 kts | 221° |
| 2026-05-07 19:38 | 50.28393 | 9.10983 | 11076 ft | 391 kts | 230° |
| 2026-05-07 19:39 | 50.26771 | 9.07593 | 11081 ft | 389 kts | 238° |
| 2026-05-07 19:39 | 50.25465 | 9.03900 | 11081 ft | 388 kts | 246° |
| 2026-05-07 19:39 | 50.24500 | 9.00073 | 11073 ft | 388 kts | 251° |
| 2026-05-07 19:39 | 50.23575 | 8.96099 | 11078 ft | 388 kts | 250° |
| 2026-05-07 19:40 | 50.22647 | 8.92141 | 11078 ft | 388 kts | 250° |
| 2026-05-07 19:40 | 50.21707 | 8.88136 | 11078 ft | 388 kts | 250° |
| 2026-05-07 19:40 | 50.20790 | 8.84239 | 11079 ft | 388 kts | 250° |
| 2026-05-07 19:40 | 50.19845 | 8.80234 | 11079 ft | 388 kts | 250° |
| 2026-05-07 19:41 | 50.18910 | 8.76279 | 11083 ft | 388 kts | 250° |
| 2026-05-07 19:41 | 50.17975 | 8.72334 | 11080 ft | 388 kts | 250° |
| 2026-05-07 19:41 | 50.17041 | 8.68392 | 11080 ft | 388 kts | 250° |
| 2026-05-07 19:41 | 50.16105 | 8.64445 | 11079 ft | 388 kts | 250° |
| 2026-05-07 19:42 | 50.15169 | 8.60500 | 11085 ft | 388 kts | 250° |
| 2026-05-07 19:42 | 50.14231 | 8.56557 | 11082 ft | 388 kts | 250° |
| 2026-05-07 19:42 | 50.13291 | 8.52620 | 11085 ft | 388 kts | 250° |
| 2026-05-07 19:42 | 50.12346 | 8.48679 | 11085 ft | 388 kts | 250° |
| 2026-05-07 19:43 | 50.11400 | 8.44743 | 11071 ft | 387 kts | 250° |
| 2026-05-07 19:43 | 50.10463 | 8.40861 | 10479 ft | 381 kts | 250° |
| 2026-05-07 19:43 | 50.09535 | 8.37016 | 9850 ft | 374 kts | 250° |
| 2026-05-07 19:43 | 50.08644 | 8.33335 | 9725 ft | 353 kts | 250° |
| 2026-05-07 19:44 | 50.07799 | 8.29851 | 9596 ft | 335 kts | 250° |
| 2026-05-07 19:44 | 50.06998 | 8.26545 | 9450 ft | 318 kts | 250° |
| 2026-05-07 19:44 | 50.06234 | 8.23402 | 9325 ft | 303 kts | 250° |
| 2026-05-07 19:44 | 50.05504 | 8.20405 | 9189 ft | 290 kts | 250° |
| 2026-05-07 19:45 | 50.04801 | 8.17531 | 8880 ft | 278 kts | 250° |
| 2026-05-07 19:45 | 50.04117 | 8.14746 | 8135 ft | 274 kts | 250° |
| 2026-05-07 19:45 | 50.03444 | 8.11987 | 7395 ft | 271 kts | 250° |
| 2026-05-07 19:45 | 50.02782 | 8.09269 | 6695 ft | 268 kts | 250° |
| 2026-05-07 19:46 | 50.02116 | 8.06583 | 5961 ft | 265 kts | 246° |
| 2026-05-07 19:46 | 50.01065 | 8.04266 | 5279 ft | 262 kts | 221° |
| 2026-05-07 19:46 | 49.99485 | 8.02847 | 5101 ft | 269 kts | 198° |
| 2026-05-07 19:46 | 49.97684 | 8.02561 | 5062 ft | 255 kts | 172° |
| 2026-05-07 19:47 | 49.96060 | 8.03383 | 5063 ft | 242 kts | 148° |
| 2026-05-07 19:47 | 49.94778 | 8.05063 | 5073 ft | 243 kts | 126° |
| 2026-05-07 19:47 | 49.94052 | 8.07423 | 5074 ft | 241 kts | 99° |
| 2026-05-07 19:47 | 49.94113 | 8.10001 | 5077 ft | 246 kts | 71° |